Time;durP1;ratioP1;P1;durP2;ratioP2;P2;SDS_P1;SDS_P2;PMS_P1;PMS_P2;Temp;Humidity;BMP_temperature;BMP_pressure;BME280_temperature;BME280_humidity;BME280_pressure;Samples;Min_cycle;Max_cycle;Signal;HPM_P1;HPM_P2
2022/08/05 00:02:17;;;;;;;7.07;5.32;;;;;;;;;;5074985;28;20059;-72
2022/08/05 00:04:44;;;;;;;7.05;5.70;;;;;;;;;;5074349;28;20108;-72
2022/08/05 00:07:11;;;;;;;6.43;5.25;;;;;;;;;;5074540;28;20052;-73
2022/08/05 00:09:37;;;;;;;6.53;5.65;;;;;;;;;;5073735;28;20029;-72
2022/08/05 00:12:03;;;;;;;7.70;5.20;;;;;;;;;;5074536;28;20104;-72
2022/08/05 00:14:29;;;;;;;5.47;5.00;;;;;;;;;;5074495;28;20479;-72
2022/08/05 00:16:55;;;;;;;6.90;5.43;;;;;;;;;;5074718;28;20372;-72
2022/08/05 00:19:21;;;;;;;5.55;5.03;;;;;;;;;;5073991;28;20130;-72
2022/08/05 00:21:47;;;;;;;7.28;5.75;;;;;;;;;;5074117;28;20467;-72
2022/08/05 00:24:13;;;;;;;5.57;5.00;;;;;;;;;;5074434;28;20417;-72
2022/08/05 00:26:40;;;;;;;5.88;4.90;;;;;;;;;;5074350;28;20028;-72
2022/08/05 00:29:06;;;;;;;14.85;5.57;;;;;;;;;;5073910;28;20068;-72
2022/08/05 00:31:32;;;;;;;6.72;5.18;;;;;;;;;;5074075;28;20027;-72
2022/08/05 00:33:58;;;;;;;5.85;4.63;;;;;;;;;;5083009;28;20024;-73
2022/08/05 00:36:24;;;;;;;7.25;5.18;;;;;;;;;;5078387;28;20060;-74
2022/08/05 00:38:50;;;;;;;6.32;5.20;;;;;;;;;;5073814;28;20059;-72
2022/08/05 00:41:27;;;;;;;6.85;5.03;;;;;;;;;;5074157;28;20096;-73
2022/08/05 00:43:53;;;;;;;5.82;5.22;;;;;;;;;;5073754;28;20383;-72
2022/08/05 00:46:19;;;;;;;6.72;5.00;;;;;;;;;;5073745;28;20044;-72
2022/08/05 00:48:45;;;;;;;6.28;5.57;;;;;;;;;;5073350;28;20028;-72
2022/08/05 00:51:11;;;;;;;4.93;4.43;;;;;;;;;;5073474;28;20021;-72
2022/08/05 00:53:37;;;;;;;5.80;4.88;;;;;;;;;;5073498;28;20360;-72
2022/08/05 00:56:04;;;;;;;9.00;5.40;;;;;;;;;;5073702;28;20020;-73
2022/08/05 00:58:30;;;;;;;8.40;5.25;;;;;;;;;;5073661;28;20072;-72
2022/08/05 01:00:56;;;;;;;6.15;5.13;;;;;;;;;;5073720;28;20111;-72
2022/08/05 01:03:24;;;;;;;5.97;5.28;;;;;;;;;;5073607;28;20436;-72
2022/08/05 01:05:51;;;;;;;5.85;5.15;;;;;;;;;;5073523;28;20078;-72
2022/08/05 01:08:17;;;;;;;5.88;5.38;;;;;;;;;;5073084;28;20577;-72
2022/08/05 01:10:46;;;;;;;5.72;5.22;;;;;;;;;;5073167;28;20464;-72
2022/08/05 01:13:32;;;;;;;5.68;4.90;;;;;;;;;;5073291;28;20489;-72
2022/08/05 01:16:00;;;;;;;5.70;5.20;;;;;;;;;;5049991;28;20116;-72
2022/08/05 01:18:31;;;;;;;5.38;4.88;;;;;;;;;;5051126;28;20043;-72
2022/08/05 01:21:06;;;;;;;5.60;5.10;;;;;;;;;;5050060;28;20029;-72
2022/08/05 01:23:51;;;;;;;9.00;5.18;;;;;;;;;;5050943;28;20055;-72
2022/08/05 01:26:25;;;;;;;5.97;4.97;;;;;;;;;;5050756;28;20067;-72
2022/08/05 01:28:51;;;;;;;5.53;5.03;;;;;;;;;;5050633;28;20083;-72
2022/08/05 01:31:26;;;;;;;6.78;5.47;;;;;;;;;;5050776;28;20521;-72
2022/08/05 01:34:11;;;;;;;5.50;5.00;;;;;;;;;;5050806;28;20037;-73
2022/08/05 01:36:40;;;;;;;5.28;4.78;;;;;;;;;;5050418;28;20415;-72
2022/08/05 01:39:06;;;;;;;5.95;5.35;;;;;;;;;;5050577;28;20025;-71
2022/08/05 01:41:34;;;;;;;5.82;5.22;;;;;;;;;;5050809;28;20037;-72
2022/08/05 01:44:00;;;;;;;7.82;6.03;;;;;;;;;;5050702;28;20458;-72
2022/08/05 01:46:28;;;;;;;5.68;4.90;;;;;;;;;;5050544;28;20091;-72
2022/08/05 01:48:54;;;;;;;9.48;5.75;;;;;;;;;;5050508;28;20033;-72
2022/08/05 01:51:21;;;;;;;6.38;5.20;;;;;;;;;;5021727;28;20048;-72
2022/08/05 01:53:49;;;;;;;6.03;5.43;;;;;;;;;;5066640;28;20031;-72
2022/08/05 01:56:15;;;;;;;5.90;5.35;;;;;;;;;;5072867;28;20023;-72
2022/08/05 01:58:42;;;;;;;6.13;5.53;;;;;;;;;;5072596;28;20016;-72
2022/08/05 02:01:09;;;;;;;5.53;5.05;;;;;;;;;;5072784;28;20099;-72
2022/08/05 02:03:40;;;;;;;5.80;5.20;;;;;;;;;;5072461;28;20472;-72
2022/08/05 02:06:06;;;;;;;7.15;5.03;;;;;;;;;;5072867;28;20459;-72
2022/08/05 02:08:33;;;;;;;9.20;5.60;;;;;;;;;;5071078;28;20070;-72
2022/08/05 02:11:04;;;;;;;5.60;5.10;;;;;;;;;;5072643;28;20106;-72
2022/08/05 02:13:34;;;;;;;7.93;5.20;;;;;;;;;;5072629;28;20024;-72
2022/08/05 02:16:12;;;;;;;6.28;5.28;;;;;;;;;;5072464;28;20021;-72
2022/08/05 02:18:48;;;;;;;5.75;5.25;;;;;;;;;;5072547;28;20048;-72
2022/08/05 02:21:17;;;;;;;6.38;5.20;;;;;;;;;;5072666;28;20067;-72
2022/08/05 02:23:44;;;;;;;5.90;5.32;;;;;;;;;;5072530;28;20459;-72
2022/08/05 02:26:12;;;;;;;6.43;5.82;;;;;;;;;;5072650;28;20395;-72
2022/08/05 02:28:42;;;;;;;7.97;5.32;;;;;;;;;;5072364;28;20036;-72
2022/08/05 02:31:11;;;;;;;7.63;5.60;;;;;;;;;;5072338;28;20082;-72
2022/08/05 02:33:40;;;;;;;5.80;5.18;;;;;;;;;;5081619;28;20107;-72
2022/08/05 02:36:11;;;;;;;7.28;5.50;;;;;;;;;;5083226;28;20446;-72
2022/08/05 02:38:37;;;;;;;6.27;5.47;;;;;;;;;;5076396;28;20017;-72
2022/08/05 02:41:03;;;;;;;6.20;5.40;;;;;;;;;;5076186;28;20021;-71
2022/08/05 02:43:31;;;;;;;10.18;5.50;;;;;;;;;;5076394;28;20082;-72
2022/08/05 02:45:57;;;;;;;7.80;5.40;;;;;;;;;;5076015;28;20052;-71
2022/08/05 02:48:24;;;;;;;8.15;5.60;;;;;;;;;;5075852;28;20086;-71
2022/08/05 02:50:51;;;;;;;6.57;5.30;;;;;;;;;;5076180;28;20469;-71
2022/08/05 02:53:19;;;;;;;7.07;5.85;;;;;;;;;;5075908;28;20387;-72
2022/08/05 02:55:49;;;;;;;8.27;5.97;;;;;;;;;;5075944;28;20016;-71
2022/08/05 02:58:16;;;;;;;6.40;5.65;;;;;;;;;;5075718;28;20056;-71
2022/08/05 03:00:44;;;;;;;5.75;5.22;;;;;;;;;;5075668;28;20028;-72
2022/08/05 03:03:10;;;;;;;6.07;5.53;;;;;;;;;;5075674;28;20103;-71
2022/08/05 03:05:38;;;;;;;6.13;5.53;;;;;;;;;;5075769;28;20532;-72
2022/08/05 03:08:04;;;;;;;7.03;5.55;;;;;;;;;;5075589;28;20048;-72
2022/08/05 03:10:30;;;;;;;6.82;6.13;;;;;;;;;;5075423;28;20025;-71
2022/08/05 03:12:56;;;;;;;5.88;5.32;;;;;;;;;;5075506;28;20498;-71
2022/08/05 03:15:23;;;;;;;6.28;5.68;;;;;;;;;;5075360;28;20482;-72
2022/08/05 03:17:49;;;;;;;6.80;5.40;;;;;;;;;;5075336;28;20027;-72
2022/08/05 03:20:15;;;;;;;5.75;5.15;;;;;;;;;;5074334;28;20531;-72
2022/08/05 03:22:41;;;;;;;6.95;6.22;;;;;;;;;;5075411;28;20020;-72
2022/08/05 03:25:07;;;;;;;8.15;5.90;;;;;;;;;;5075193;28;20048;-71
2022/08/05 03:27:33;;;;;;;7.63;5.55;;;;;;;;;;5075175;28;20083;-72
2022/08/05 03:29:59;;;;;;;10.45;5.95;;;;;;;;;;5075204;28;20056;-71
2022/08/05 03:32:26;;;;;;;9.88;6.15;;;;;;;;;;5075227;28;20375;-71
2022/08/05 03:34:52;;;;;;;6.38;5.63;;;;;;;;;;5088840;28;20462;-71
2022/08/05 03:37:19;;;;;;;7.45;6.00;;;;;;;;;;5075111;28;20119;-71
2022/08/05 03:39:54;;;;;;;7.15;5.82;;;;;;;;;;5075259;28;20503;-72
2022/08/05 03:42:20;;;;;;;6.13;5.50;;;;;;;;;;5075511;28;20028;-71
2022/08/05 03:44:46;;;;;;;10.30;5.82;;;;;;;;;;5074228;28;20061;-71
2022/08/05 03:47:12;;;;;;;6.90;5.45;;;;;;;;;;5074847;28;20021;-71
2022/08/05 03:49:38;;;;;;;7.25;5.78;;;;;;;;;;5074951;28;20093;-71
2022/08/05 03:52:05;;;;;;;6.80;5.20;;;;;;;;;;5074486;28;20111;-71
2022/08/05 03:54:37;;;;;;;12.00;5.63;;;;;;;;;;5074772;28;20043;-71
2022/08/05 03:57:05;;;;;;;9.02;5.40;;;;;;;;;;5074627;28;20017;-71
2022/08/05 03:59:33;;;;;;;6.97;5.50;;;;;;;;;;5074687;28;20024;-71
2022/08/05 04:02:00;;;;;;;8.05;6.15;;;;;;;;;;5074307;28;20032;-71
2022/08/05 04:04:27;;;;;;;6.93;6.18;;;;;;;;;;5074654;28;20463;-71
2022/08/05 04:06:53;;;;;;;7.30;6.00;;;;;;;;;;5074364;28;20071;-71
2022/08/05 04:09:20;;;;;;;9.25;5.78;;;;;;;;;;5074419;28;20507;-71
2022/08/05 04:11:46;;;;;;;10.18;5.85;;;;;;;;;;5074435;28;20028;-72
2022/08/05 04:14:12;;;;;;;6.57;5.90;;;;;;;;;;5072608;28;20555;-72
2022/08/05 04:16:39;;;;;;;8.48;5.68;;;;;;;;;;5074675;28;20102;-71
2022/08/05 04:19:05;;;;;;;7.13;6.25;;;;;;;;;;5074063;28;20023;-72
2022/08/05 04:21:31;;;;;;;7.93;5.68;;;;;;;;;;5074155;28;20020;-71
2022/08/05 04:24:00;;;;;;;8.15;5.60;;;;;;;;;;5074316;28;20421;-72
2022/08/05 04:26:26;;;;;;;7.93;6.03;;;;;;;;;;5074232;28;20548;-72
2022/08/05 04:28:52;;;;;;;6.85;6.07;;;;;;;;;;5074253;28;20037;-72
2022/08/05 04:31:19;;;;;;;6.80;5.95;;;;;;;;;;5073868;28;20021;-72
2022/08/05 04:33:45;;;;;;;8.25;6.45;;;;;;;;;;5081733;28;20089;-72
2022/08/05 04:36:12;;;;;;;7.97;5.90;;;;;;;;;;5080244;28;20564;-72
2022/08/05 04:38:38;;;;;;;7.47;6.30;;;;;;;;;;5073937;28;20383;-72
2022/08/05 04:41:05;;;;;;;6.90;5.95;;;;;;;;;;5073737;28;20453;-72
2022/08/05 04:43:31;;;;;;;13.02;8.60;;;;;;;;;;5073800;28;20028;-72
2022/08/05 04:45:57;;;;;;;9.18;6.70;;;;;;;;;;5073610;28;20021;-71
2022/08/05 04:48:23;;;;;;;8.68;6.80;;;;;;;;;;5073366;28;20039;-71
2022/08/05 04:50:49;;;;;;;9.55;6.57;;;;;;;;;;5073649;28;20212;-72
2022/08/05 04:53:16;;;;;;;8.63;6.63;;;;;;;;;;5073518;28;20054;-71
2022/08/05 04:55:43;;;;;;;10.13;6.57;;;;;;;;;;5073322;28;20024;-72
2022/08/05 04:58:10;;;;;;;9.13;6.75;;;;;;;;;;5073930;28;20103;-72
2022/08/05 05:00:36;;;;;;;8.38;5.95;;;;;;;;;;5073546;28;20021;-71
2022/08/05 05:03:03;;;;;;;6.80;5.45;;;;;;;;;;5073590;28;20090;-72
2022/08/05 05:05:30;;;;;;;6.20;5.60;;;;;;;;;;5073458;28;20071;-71
2022/08/05 05:08:06;;;;;;;8.05;6.13;;;;;;;;;;5073276;28;20078;-72
2022/08/05 05:10:33;;;;;;;11.00;8.80;;;;;;;;;;5072121;28;20027;-71
2022/08/05 05:12:59;;;;;;;7.72;6.13;;;;;;;;;;5073163;28;20585;-72
2022/08/05 05:15:25;;;;;;;12.00;5.63;;;;;;;;;;5072988;28;20471;-72
2022/08/05 05:17:51;;;;;;;6.97;5.30;;;;;;;;;;5071700;28;20518;-72
2022/08/05 05:20:18;;;;;;;9.07;6.18;;;;;;;;;;5073243;28;20024;-73
2022/08/05 05:22:44;;;;;;;8.48;5.72;;;;;;;;;;5072893;28;20059;-72
2022/08/05 05:25:11;;;;;;;7.57;5.60;;;;;;;;;;5073354;28;20093;-72
2022/08/05 05:27:37;;;;;;;9.02;6.05;;;;;;;;;;5072906;28;20024;-72
2022/08/05 05:30:03;;;;;;;10.85;6.20;;;;;;;;;;5073199;28;20090;-72
2022/08/05 05:32:30;;;;;;;8.65;6.18;;;;;;;;;;5072658;28;20021;-73
2022/08/05 05:34:56;;;;;;;10.73;5.97;;;;;;;;;;5087047;28;20028;-71
2022/08/05 05:37:22;;;;;;;9.70;5.85;;;;;;;;;;5072770;28;20477;-70
2022/08/05 05:39:48;;;;;;;8.85;6.03;;;;;;;;;;5072720;28;20031;-70
2022/08/05 05:42:14;;;;;;;7.30;5.70;;;;;;;;;;5072858;28;20526;-71
2022/08/05 05:44:40;;;;;;;7.07;5.43;;;;;;;;;;5072807;28;20028;-71
2022/08/05 05:47:07;;;;;;;7.50;5.82;;;;;;;;;;5073008;28;20017;-72
2022/08/05 05:49:33;;;;;;;7.38;5.70;;;;;;;;;;5072998;28;20414;-71
2022/08/05 05:51:59;;;;;;;7.20;5.80;;;;;;;;;;5072447;28;20020;-71
2022/08/05 05:54:25;;;;;;;14.27;6.10;;;;;;;;;;5072634;28;20028;-71
2022/08/05 05:56:51;;;;;;;8.15;6.15;;;;;;;;;;5072415;28;20060;-71
2022/08/05 05:59:17;;;;;;;9.52;5.53;;;;;;;;;;5072691;28;20033;-71
2022/08/05 06:01:43;;;;;;;5.85;5.30;;;;;;;;;;5072473;28;20021;-71
2022/08/05 06:04:10;;;;;;;8.05;5.93;;;;;;;;;;5072439;28;20386;-72
2022/08/05 06:06:36;;;;;;;7.70;5.57;;;;;;;;;;5072581;28;20368;-72
2022/08/05 06:09:06;;;;;;;9.93;5.53;;;;;;;;;;5076073;28;20479;-71
2022/08/05 06:11:33;;;;;;;7.03;5.90;;;;;;;;;;5076691;28;20073;-73
2022/08/05 06:13:59;;;;;;;6.85;5.13;;;;;;;;;;5076604;28;20032;-73
2022/08/05 06:16:25;;;;;;;8.30;6.10;;;;;;;;;;5076569;28;20028;-72
2022/08/05 06:18:51;;;;;;;7.47;5.65;;;;;;;;;;5076575;28;20047;-73
2022/08/05 06:21:17;;;;;;;6.80;5.60;;;;;;;;;;5076802;28;20054;-72
2022/08/05 06:23:44;;;;;;;7.90;5.40;;;;;;;;;;5076565;28;20375;-72
2022/08/05 06:26:10;;;;;;;7.60;5.82;;;;;;;;;;5076194;28;20017;-72
2022/08/05 06:28:36;;;;;;;8.60;7.70;;;;;;;;;;5076261;28;20072;-72
2022/08/05 06:31:02;;;;;;;7.72;6.88;;;;;;;;;;5075962;28;20062;-72
2022/08/05 06:33:28;;;;;;;9.93;5.68;;;;;;;;;;5081351;28;20023;-72
2022/08/05 06:35:55;;;;;;;6.60;5.55;;;;;;;;;;5085010;28;20083;-72
2022/08/05 06:38:21;;;;;;;8.68;5.63;;;;;;;;;;5075984;28;20513;-72
2022/08/05 06:40:47;;;;;;;6.93;5.53;;;;;;;;;;5076243;28;20044;-72
2022/08/05 06:43:13;;;;;;;14.88;6.03;;;;;;;;;;5075970;28;20442;-71
2022/08/05 06:45:39;;;;;;;18.92;6.32;;;;;;;;;;5076091;28;20416;-72
2022/08/05 06:48:05;;;;;;;6.47;5.57;;;;;;;;;;5075742;28;20032;-71
2022/08/05 06:50:31;;;;;;;15.10;7.10;;;;;;;;;;5075831;28;20135;-71
2022/08/05 06:52:57;;;;;;;8.63;6.43;;;;;;;;;;5076054;28;20099;-72
2022/08/05 06:55:23;;;;;;;8.85;5.72;;;;;;;;;;5075724;28;20028;-72
2022/08/05 06:57:49;;;;;;;7.97;6.03;;;;;;;;;;5075936;28;20150;-72
2022/08/05 07:00:17;;;;;;;8.13;5.38;;;;;;;;;;5075538;28;20050;-72
2022/08/05 07:02:44;;;;;;;6.47;5.65;;;;;;;;;;5075628;28;20130;-72
2022/08/05 07:05:10;;;;;;;7.38;5.47;;;;;;;;;;5075369;28;20024;-72
2022/08/05 07:07:37;;;;;;;8.45;5.70;;;;;;;;;;5075667;28;20045;-72
2022/08/05 07:10:03;;;;;;;12.05;7.18;;;;;;;;;;5075827;28;20025;-72
2022/08/05 07:17:59;;;;;;;10.75;6.53;;;;;;;;;;5075764;28;20085;-73
2022/08/05 07:20:25;;;;;;;12.23;7.10;;;;;;;;;;5075581;28;20039;-73
2022/08/05 07:22:51;;;;;;;8.63;6.25;;;;;;;;;;5075460;28;20024;-73
2022/08/05 07:25:17;;;;;;;9.73;7.32;;;;;;;;;;5075199;28;20025;-73
2022/08/05 07:27:43;;;;;;;13.20;7.40;;;;;;;;;;5075382;28;20025;-73
2022/08/05 07:30:09;;;;;;;13.07;7.65;;;;;;;;;;5075105;28;20055;-73
2022/08/05 07:32:36;;;;;;;13.68;8.65;;;;;;;;;;5076798;28;20494;-72
2022/08/05 07:35:02;;;;;;;12.45;9.60;;;;;;;;;;5090940;28;20494;-72
2022/08/05 07:37:28;;;;;;;12.10;10.57;;;;;;;;;;5075333;28;20029;-72
2022/08/05 07:39:54;;;;;;;21.52;11.90;;;;;;;;;;5074933;28;20063;-72
2022/08/05 07:42:20;;;;;;;11.30;8.55;;;;;;;;;;5074933;28;20016;-72
2022/08/05 07:44:47;;;;;;;17.92;9.50;;;;;;;;;;5074612;28;20123;-73
2022/08/05 07:47:14;;;;;;;10.23;7.95;;;;;;;;;;5075197;28;20625;-73
2022/08/05 07:49:40;;;;;;;14.30;8.10;;;;;;;;;;5074641;28;20040;-72
2022/08/05 07:52:06;;;;;;;12.15;8.48;;;;;;;;;;5074531;28;20020;-73
2022/08/05 07:54:32;;;;;;;13.63;8.10;;;;;;;;;;5074790;28;20025;-72
2022/08/05 07:56:59;;;;;;;14.25;8.93;;;;;;;;;;5074672;28;20378;-72
2022/08/05 07:59:25;;;;;;;10.32;8.65;;;;;;;;;;5074511;28;20024;-72
2022/08/05 08:01:51;;;;;;;11.35;7.82;;;;;;;;;;5074680;28;20028;-72
2022/08/05 08:04:17;;;;;;;29.08;9.30;;;;;;;;;;5074606;28;20111;-73
2022/08/05 08:06:44;;;;;;;10.82;7.65;;;;;;;;;;5074952;28;20387;-72
2022/08/05 08:09:10;;;;;;;12.10;7.03;;;;;;;;;;5074502;28;20024;-72
2022/08/05 08:11:36;;;;;;;14.45;7.32;;;;;;;;;;5074521;28;20044;-71
2022/08/05 08:14:02;;;;;;;12.80;7.15;;;;;;;;;;5074190;28;20017;-72
2022/08/05 08:16:28;;;;;;;9.10;6.20;;;;;;;;;;5074345;28;20028;-73
2022/08/05 08:18:55;;;;;;;11.73;7.22;;;;;;;;;;5074197;28;20024;-72
2022/08/05 08:21:21;;;;;;;11.75;6.05;;;;;;;;;;5074312;28;20043;-73
2022/08/05 08:23:47;;;;;;;8.77;7.05;;;;;;;;;;5074022;28;20035;-72
2022/08/05 08:26:13;;;;;;;11.98;6.70;;;;;;;;;;5073969;28;20410;-72
2022/08/05 08:28:39;;;;;;;7.75;6.28;;;;;;;;;;5073979;28;20033;-71
2022/08/05 08:31:06;;;;;;;9.98;6.53;;;;;;;;;;5073251;28;20021;-71
2022/08/05 08:33:32;;;;;;;13.35;6.40;;;;;;;;;;5079698;28;20398;-72
2022/08/05 08:35:58;;;;;;;17.48;6.03;;;;;;;;;;5082237;28;20041;-72
2022/08/05 08:38:24;;;;;;;11.80;6.85;;;;;;;;;;5074140;28;20025;-71
2022/08/05 08:40:50;;;;;;;9.20;6.32;;;;;;;;;;5072650;28;20016;-72
2022/08/05 08:43:18;;;;;;;9.00;5.68;;;;;;;;;;5073692;28;20025;-72
2022/08/05 08:45:44;;;;;;;18.98;6.57;;;;;;;;;;5073494;28;20020;-72
2022/08/05 08:48:11;;;;;;;8.40;5.07;;;;;;;;;;5073646;28;20039;-72
2022/08/05 08:50:39;;;;;;;5.70;4.65;;;;;;;;;;5073620;28;20031;-71
2022/08/05 08:53:06;;;;;;;8.13;5.88;;;;;;;;;;5073425;28;20124;-71
2022/08/05 08:55:35;;;;;;;6.65;4.57;;;;;;;;;;5073470;28;20016;-72
2022/08/05 08:58:01;;;;;;;7.40;5.15;;;;;;;;;;5074013;28;20099;-72
2022/08/05 09:00:28;;;;;;;8.63;5.90;;;;;;;;;;5073201;28;20032;-71
2022/08/05 09:02:55;;;;;;;5.28;4.40;;;;;;;;;;5072076;28;20033;-72
2022/08/05 09:05:21;;;;;;;8.25;4.68;;;;;;;;;;5073247;28;20020;-71
2022/08/05 09:07:47;;;;;;;7.85;5.40;;;;;;;;;;5073088;28;20041;-71
2022/08/05 09:10:14;;;;;;;11.00;5.78;;;;;;;;;;5073323;28;20058;-71
2022/08/05 09:12:40;;;;;;;6.40;5.80;;;;;;;;;;5072268;28;20067;-72
2022/08/05 09:15:06;;;;;;;6.38;4.55;;;;;;;;;;5073052;28;20016;-72
2022/08/05 09:17:32;;;;;;;6.07;4.55;;;;;;;;;;5073093;28;20467;-72
2022/08/05 09:19:59;;;;;;;8.23;4.97;;;;;;;;;;5073028;28;20039;-73
2022/08/05 09:22:25;;;;;;;8.20;5.60;;;;;;;;;;5073073;28;20017;-72
2022/08/05 09:25:02;;;;;;;7.05;5.38;;;;;;;;;;5072934;28;20025;-72
2022/08/05 09:27:32;;;;;;;12.45;5.95;;;;;;;;;;5073056;28;20028;-71
2022/08/05 09:29:59;;;;;;;7.60;4.18;;;;;;;;;;5073196;28;20020;-72
2022/08/05 09:32:35;;;;;;;5.30;4.60;;;;;;;;;;5072816;28;20020;-72
2022/08/05 09:35:08;;;;;;;6.50;4.68;;;;;;;;;;5086768;28;20028;-73
2022/08/05 09:37:34;;;;;;;7.72;6.22;;;;;;;;;;5073230;28;20037;-72
2022/08/05 09:40:00;;;;;;;5.85;4.60;;;;;;;;;;5072895;28;20017;-72
2022/08/05 09:42:28;;;;;;;5.10;4.60;;;;;;;;;;5071860;28;20021;-73
2022/08/05 09:44:55;;;;;;;11.57;5.00;;;;;;;;;;5072794;28;20512;-72
2022/08/05 09:47:24;;;;;;;6.95;5.10;;;;;;;;;;5072814;28;20348;-72
2022/08/05 09:49:54;;;;;;;11.98;5.93;;;;;;;;;;5072756;28;20493;-72
2022/08/05 09:52:23;;;;;;;8.50;5.17;;;;;;;;;;5073127;28;20095;-72
2022/08/05 09:54:53;;;;;;;8.57;5.38;;;;;;;;;;5072493;28;20025;-72
2022/08/05 09:57:29;;;;;;;5.43;3.97;;;;;;;;;;5072534;28;20029;-73
2022/08/05 10:00:07;;;;;;;5.53;4.22;;;;;;;;;;5072757;28;20076;-73
2022/08/05 10:02:40;;;;;;;5.47;4.05;;;;;;;;;;5072771;28;20080;-73
2022/08/05 10:05:18;;;;;;;5.30;4.20;;;;;;;;;;5072837;28;20124;-72
2022/08/05 10:07:56;;;;;;;5.70;5.15;;;;;;;;;;5072479;28;20063;-73
2022/08/05 10:10:26;;;;;;;5.00;4.43;;;;;;;;;;5071036;28;20028;-74
2022/08/05 10:12:54;;;;;;;4.70;4.30;;;;;;;;;;5072812;28;20099;-72
2022/08/05 10:15:20;;;;;;;4.78;4.28;;;;;;;;;;5072413;28;20424;-72
2022/08/05 10:18:02;;;;;;;4.75;4.30;;;;;;;;;;5072611;28;20017;-74
2022/08/05 10:20:28;;;;;;;5.20;4.50;;;;;;;;;;5072432;28;20025;-72
2022/08/05 10:22:55;;;;;;;4.72;4.18;;;;;;;;;;5072542;28;20442;-72
2022/08/05 10:25:21;;;;;;;6.20;4.47;;;;;;;;;;5072286;28;20173;-73
2022/08/05 10:27:47;;;;;;;6.00;4.75;;;;;;;;;;5072198;28;20032;-74
2022/08/05 10:30:13;;;;;;;5.32;4.82;;;;;;;;;;5072350;28;20086;-72
2022/08/05 10:32:39;;;;;;;7.63;5.03;;;;;;;;;;5072572;28;20016;-72
2022/08/05 10:35:06;;;;;;;5.65;5.15;;;;;;;;;;5084461;28;20375;-72
2022/08/05 10:37:32;;;;;;;5.20;4.70;;;;;;;;;;5072475;28;20029;-72
2022/08/05 10:40:03;;;;;;;5.97;4.32;;;;;;;;;;5072239;28;20056;-74
2022/08/05 10:42:29;;;;;;;6.68;4.20;;;;;;;;;;5070245;28;20502;-73
2022/08/05 10:44:56;;;;;;;4.90;4.40;;;;;;;;;;5072064;28;20029;-74
2022/08/05 10:47:30;;;;;;;5.35;4.85;;;;;;;;;;5071988;28;20020;-73
2022/08/05 10:50:01;;;;;;;8.52;4.65;;;;;;;;;;5072043;28;20036;-73
2022/08/05 10:52:51;;;;;;;6.65;4.75;;;;;;;;;;5072181;28;20028;-72
2022/08/05 10:55:17;;;;;;;11.75;4.75;;;;;;;;;;5075601;28;20102;-74
2022/08/05 10:57:44;;;;;;;4.18;3.78;;;;;;;;;;5075916;28;20105;-74
2022/08/05 11:00:15;;;;;;;4.70;4.20;;;;;;;;;;5075528;28;20067;-74
2022/08/05 11:03:00;;;;;;;5.03;4.53;;;;;;;;;;5075864;28;20103;-72
2022/08/05 11:05:26;;;;;;;5.22;4.72;;;;;;;;;;5075484;28;20028;-73
2022/08/05 11:07:58;;;;;;;6.75;5.03;;;;;;;;;;5075561;28;20115;-73
2022/08/05 11:10:25;;;;;;;5.05;4.55;;;;;;;;;;5075140;28;20497;-72
2022/08/05 11:12:51;;;;;;;5.60;4.53;;;;;;;;;;5075885;28;20019;-72
2022/08/05 11:15:26;;;;;;;7.97;4.97;;;;;;;;;;5074227;28;20035;-73
2022/08/05 11:18:05;;;;;;;6.65;4.25;;;;;;;;;;5074159;28;20012;-74
2022/08/05 11:20:40;;;;;;;4.78;4.22;;;;;;;;;;5075353;28;20056;-74
2022/08/05 11:23:25;;;;;;;8.02;4.47;;;;;;;;;;5075167;28;20449;-74
2022/08/05 11:26:21;;;;;;;7.05;5.13;;;;;;;;;;5075231;28;20113;-74
2022/08/05 11:28:48;;;;;;;4.97;4.10;;;;;;;;;;5045602;28;20522;-73
2022/08/05 11:31:14;;;;;;;4.43;4.00;;;;;;;;;;5052887;28;20040;-73
2022/08/05 11:33:46;;;;;;;5.57;4.40;;;;;;;;;;5052800;28;20033;-72
2022/08/05 11:36:13;;;;;;;5.57;4.80;;;;;;;;;;5035936;28;20045;-73
2022/08/05 11:38:42;;;;;;;5.60;4.40;;;;;;;;;;5052893;28;20033;-73
2022/08/05 11:41:16;;;;;;;5.10;4.20;;;;;;;;;;5052976;28;20033;-74
2022/08/05 11:43:43;;;;;;;5.97;4.63;;;;;;;;;;5052689;28;20025;-72
2022/08/05 11:46:09;;;;;;;5.28;4.60;;;;;;;;;;5052489;28;20546;-72
2022/08/05 11:48:35;;;;;;;4.85;4.38;;;;;;;;;;5052498;28;20040;-74
2022/08/05 11:51:01;;;;;;;4.75;4.30;;;;;;;;;;5052857;28;20582;-74
2022/08/05 11:53:28;;;;;;;5.38;4.50;;;;;;;;;;5052522;28;20055;-73
2022/08/05 11:55:55;;;;;;;6.75;5.00;;;;;;;;;;5052710;28;20112;-73
2022/08/05 11:58:30;;;;;;;5.55;4.03;;;;;;;;;;5052515;28;20106;-72
2022/08/05 12:01:25;;;;;;;4.68;4.28;;;;;;;;;;5052373;28;20113;-74
2022/08/05 12:03:53;;;;;;;6.05;4.85;;;;;;;;;;5012763;28;20509;-72
2022/08/05 12:06:22;;;;;;;5.10;4.60;;;;;;;;;;5031390;28;20037;-73
2022/08/05 12:08:51;;;;;;;6.05;4.80;;;;;;;;;;5046216;28;20509;-73
2022/08/05 12:11:22;;;;;;;5.88;4.80;;;;;;;;;;5040695;28;20036;-73
2022/08/05 12:13:54;;;;;;;7.65;4.47;;;;;;;;;;5038157;28;20172;-73
2022/08/05 12:16:20;;;;;;;5.45;4.30;;;;;;;;;;5044340;28;20060;-73
2022/08/05 12:18:46;;;;;;;4.55;4.15;;;;;;;;;;5046124;28;20028;-73
2022/08/05 12:21:17;;;;;;;4.97;4.47;;;;;;;;;;5046033;28;20032;-73
2022/08/05 12:23:53;;;;;;;5.82;4.40;;;;;;;;;;5044824;28;20029;-73
2022/08/05 12:26:19;;;;;;;6.15;4.88;;;;;;;;;;5045702;28;20172;-74
2022/08/05 12:28:45;;;;;;;6.55;4.55;;;;;;;;;;5044228;28;20102;-73
2022/08/05 12:31:12;;;;;;;5.10;4.57;;;;;;;;;;5037860;28;20058;-75
2022/08/05 12:33:38;;;;;;;6.03;4.47;;;;;;;;;;5041331;28;20034;-73
2022/08/05 12:36:08;;;;;;;8.75;4.70;;;;;;;;;;5044046;28;20048;-75
2022/08/05 12:38:35;;;;;;;4.70;4.20;;;;;;;;;;5037805;28;20039;-75
2022/08/05 12:41:01;;;;;;;7.65;4.80;;;;;;;;;;5075291;28;20036;-76
2022/08/05 12:43:27;;;;;;;8.27;5.18;;;;;;;;;;5073655;28;20116;-75
2022/08/05 12:45:54;;;;;;;5.20;4.70;;;;;;;;;;5073690;28;20074;-74
2022/08/05 12:48:22;;;;;;;5.20;4.70;;;;;;;;;;5073791;28;20078;-75
2022/08/05 12:51:07;;;;;;;6.63;5.00;;;;;;;;;;5073759;28;20421;-75
2022/08/05 12:53:33;;;;;;;7.57;4.57;;;;;;;;;;5073301;28;20021;-74
2022/08/05 12:55:59;;;;;;;5.32;4.40;;;;;;;;;;5073494;28;20063;-75
2022/08/05 12:58:25;;;;;;;5.32;4.82;;;;;;;;;;5073612;28;20444;-74
2022/08/05 13:00:51;;;;;;;6.57;4.90;;;;;;;;;;5073961;28;20032;-74
2022/08/05 13:03:17;;;;;;;5.28;4.75;;;;;;;;;;5073388;28;20371;-74
2022/08/05 13:05:46;;;;;;;7.80;5.68;;;;;;;;;;5073645;28;20052;-75
2022/08/05 13:08:16;;;;;;;5.45;4.95;;;;;;;;;;5073604;28;20081;-75
2022/08/05 13:10:42;;;;;;;7.93;5.30;;;;;;;;;;5071750;28;20441;-74
2022/08/05 13:13:09;;;;;;;5.35;4.85;;;;;;;;;;5073449;28;20066;-74
2022/08/05 13:15:35;;;;;;;7.38;5.07;;;;;;;;;;5072912;28;20475;-74
2022/08/05 13:18:01;;;;;;;6.97;4.50;;;;;;;;;;5073082;28;20091;-75
2022/08/05 13:20:34;;;;;;;6.38;5.00;;;;;;;;;;5073100;28;20548;-74
2022/08/05 13:23:00;;;;;;;5.53;3.95;;;;;;;;;;5073104;28;20024;-75
2022/08/05 13:25:27;;;;;;;6.60;4.90;;;;;;;;;;5072906;28;20101;-75
2022/08/05 13:27:56;;;;;;;5.43;4.80;;;;;;;;;;5073021;28;20020;-74
2022/08/05 13:30:26;;;;;;;6.20;5.60;;;;;;;;;;5072950;28;20020;-73
2022/08/05 13:32:52;;;;;;;5.27;4.77;;;;;;;;;;5072733;28;20020;-74
2022/08/05 13:35:19;;;;;;;5.75;5.03;;;;;;;;;;5086296;28;20304;-75
2022/08/05 13:37:45;;;;;;;6.20;5.60;;;;;;;;;;5073218;28;20058;-74
2022/08/05 13:40:11;;;;;;;8.63;5.60;;;;;;;;;;5072612;28;20066;-75
2022/08/05 13:42:38;;;;;;;5.68;5.07;;;;;;;;;;5073058;28;20052;-76
2022/08/05 13:45:06;;;;;;;7.88;5.25;;;;;;;;;;5072810;28;20462;-75
2022/08/05 13:47:39;;;;;;;13.13;6.43;;;;;;;;;;5072743;28;20058;-74
2022/08/05 13:50:05;;;;;;;6.88;5.00;;;;;;;;;;5072308;28;20037;-73
2022/08/05 13:52:32;;;;;;;5.20;4.38;;;;;;;;;;5073109;28;20423;-74
2022/08/05 13:54:58;;;;;;;7.07;4.95;;;;;;;;;;5072637;28;20111;-73
2022/08/05 13:57:24;;;;;;;7.97;5.88;;;;;;;;;;5072676;28;20138;-72
2022/08/05 13:59:51;;;;;;;6.40;5.78;;;;;;;;;;5072777;28;20028;-74
2022/08/05 14:02:17;;;;;;;6.38;5.35;;;;;;;;;;5072837;28;20129;-73
2022/08/05 14:07:33;;;;;;;5.28;4.78;;;;;;;;;;5072895;28;20089;-72
2022/08/05 14:10:00;;;;;;;5.88;4.53;;;;;;;;;;5072594;28;20036;-73
2022/08/05 14:12:26;;;;;;;5.68;4.43;;;;;;;;;;5072269;28;20138;-73
2022/08/05 14:14:52;;;;;;;9.82;5.03;;;;;;;;;;5072660;28;20020;-72
2022/08/05 14:17:22;;;;;;;10.52;5.75;;;;;;;;;;5072254;28;20020;-72
2022/08/05 14:19:48;;;;;;;6.60;5.15;;;;;;;;;;5072460;28;20021;-72
2022/08/05 14:22:14;;;;;;;6.43;5.22;;;;;;;;;;5072394;28;20021;-72
2022/08/05 14:24:41;;;;;;;5.93;5.05;;;;;;;;;;5072200;28;20031;-73
2022/08/05 14:27:07;;;;;;;6.40;5.38;;;;;;;;;;5072484;28;20386;-72
2022/08/05 14:29:33;;;;;;;7.00;4.97;;;;;;;;;;5075002;28;20104;-73
2022/08/05 14:31:59;;;;;;;6.82;4.70;;;;;;;;;;5076281;28;20025;-72
2022/08/05 14:34:25;;;;;;;5.47;4.97;;;;;;;;;;5089320;28;20036;-73
2022/08/05 14:36:51;;;;;;;6.25;5.63;;;;;;;;;;5076829;28;20051;-73
2022/08/05 14:39:17;;;;;;;8.43;5.60;;;;;;;;;;5076085;28;20479;-72
2022/08/05 14:41:44;;;;;;;5.35;4.68;;;;;;;;;;5075898;28;20028;-72
2022/08/05 14:44:10;;;;;;;7.35;4.93;;;;;;;;;;5076122;28;20016;-73
2022/08/05 14:46:36;;;;;;;7.57;5.75;;;;;;;;;;5075974;28;20434;-73
2022/08/05 14:49:03;;;;;;;4.88;4.43;;;;;;;;;;5075639;28;20056;-73
2022/08/05 14:51:29;;;;;;;6.53;4.93;;;;;;;;;;5076113;28;20020;-73
2022/08/05 14:53:55;;;;;;;7.07;5.15;;;;;;;;;;5076040;28;20024;-73